Time;durP1;ratioP1;P1;durP2;ratioP2;P2;SDS_P1;SDS_P2;PMS_P1;PMS_P2;Temp;Humidity;BMP_temperature;BMP_pressure;BME280_temperature;BME280_humidity;BME280_pressure;Samples;Min_cycle;Max_cycle;Signal;HPM_P1;HPM_P2
2022/04/26 03:38:18;;;;;;;41.30;29.00;;;;;;;10.76;100.00;95888.22;5104055;28;20070;-50
2022/04/26 03:40:46;;;;;;;41.92;30.25;;;;;;;10.70;100.00;95891.50;5108392;28;20521;-49
2022/04/26 03:43:15;;;;;;;41.15;30.77;;;;;;;10.59;100.00;95895.25;5106865;28;20060;-53
2022/04/26 03:45:43;;;;;;;43.28;31.05;;;;;;;10.46;100.00;95889.63;5103736;28;20078;-52
2022/04/26 03:48:11;;;;;;;42.58;30.65;;;;;;;10.49;100.00;95894.53;5106180;28;20090;-56
2022/04/26 03:50:41;;;;;;;41.53;30.70;;;;;;;10.33;100.00;95897.94;5108467;28;20116;-51
2022/04/26 03:53:09;;;;;;;43.72;32.33;;;;;;;10.32;100.00;95898.09;5106744;27;20075;-53
2022/04/26 03:55:37;;;;;;;43.00;31.52;;;;;;;10.56;100.00;95895.56;5108800;27;20063;-55
2022/04/26 03:58:06;;;;;;;43.17;31.60;;;;;;;10.32;100.00;95898.09;5104758;28;20067;-57
2022/04/26 04:00:34;;;;;;;46.10;32.88;;;;;;;10.18;100.00;95902.09;5105531;27;20078;-53
2022/04/26 04:03:03;;;;;;;42.20;31.33;;;;;;;10.23;100.00;95900.66;5103125;27;20086;-58
2022/04/26 04:05:31;;;;;;;44.45;32.30;;;;;;;10.32;100.00;95901.53;5127931;27;20069;-54
2022/04/26 04:08:02;;;;;;;45.72;33.63;;;;;;;10.42;100.00;95902.25;5105480;27;20059;-58
2022/04/26 04:10:30;;;;;;;44.42;31.58;;;;;;;10.13;100.00;95913.09;5106936;28;20066;-52
2022/04/26 04:12:59;;;;;;;45.40;32.25;;;;;;;10.08;100.00;95907.50;5106408;28;20067;-48
2022/04/26 04:15:27;;;;;;;46.95;33.50;;;;;;;10.18;100.00;95905.56;5101347;28;20063;-51
2022/04/26 04:17:55;;;;;;;48.30;33.55;;;;;;;10.13;100.00;95912.28;5106708;27;20083;-50
2022/04/26 04:20:23;;;;;;;45.58;32.58;;;;;;;10.07;100.00;95916.34;5098867;28;20086;-55
2022/04/26 04:22:53;;;;;;;47.42;32.53;;;;;;;10.17;100.00;95914.44;5120663;27;20058;-53
2022/04/26 04:25:23;;;;;;;49.88;34.13;;;;;;;10.20;100.00;95908.88;5125578;27;20063;-59
2022/04/26 04:27:51;;;;;;;49.63;34.33;;;;;;;10.13;100.00;95909.66;5111916;27;20071;-46
2022/04/26 04:30:20;;;;;;;50.17;33.22;;;;;;;10.08;100.00;95915.41;5103867;28;20059;-53
2022/04/26 04:32:48;;;;;;;47.22;32.13;;;;;;;10.06;100.00;95917.34;5105375;28;20094;-51
2022/04/26 04:35:16;;;;;;;45.53;32.97;;;;;;;10.22;100.00;95917.44;5101163;27;20102;-51
2022/04/26 04:37:47;;;;;;;50.10;33.35;;;;;;;10.27;100.00;95916.19;5102052;28;20044;-54
2022/04/26 04:40:17;;;;;;;46.50;33.22;;;;;;;10.44;100.00;95925.84;5104346;28;20067;-55
2022/04/26 04:42:47;;;;;;;46.75;33.20;;;;;;;10.76;100.00;95926.97;5108040;27;20082;-52
2022/04/26 04:45:15;;;;;;;45.55;32.17;;;;;;;10.88;100.00;95937.09;5125214;27;20082;-50
2022/04/26 04:47:43;;;;;;;44.75;32.42;;;;;;;10.64;100.00;95934.34;5126397;27;20082;-54
2022/04/26 04:50:12;;;;;;;45.92;31.85;;;;;;;11.03;100.00;95934.66;5104904;28;20477;-56
2022/04/26 04:52:40;;;;;;;44.97;31.90;;;;;;;10.83;100.00;95931.44;5119468;27;20124;-54
2022/04/26 04:55:09;;;;;;;47.08;33.28;;;;;;;10.95;100.00;95933.81;5114206;27;20066;-57
2022/04/26 04:57:37;;;;;;;43.25;31.63;;;;;;;11.09;100.00;95930.56;5102991;28;20066;-58
2022/04/26 05:00:08;;;;;;;46.28;32.72;;;;;;;11.19;100.00;95940.97;5102905;28;20079;-53
2022/04/26 05:02:39;;;;;;;44.78;32.78;;;;;;;11.57;100.00;95935.09;5104178;28;20082;-55
2022/04/26 05:05:08;;;;;;;43.60;31.88;;;;;;;11.63;100.00;95946.81;5125669;27;20055;-54
2022/04/26 05:07:37;;;;;;;41.03;31.27;;;;;;;11.36;100.00;95947.94;5123518;27;20062;-51
2022/04/26 05:10:06;;;;;;;42.05;30.17;;;;;;;11.24;100.00;95951.84;5122651;27;20078;-57
2022/04/26 05:12:34;;;;;;;41.20;30.77;;;;;;;11.33;100.00;95958.81;5122550;27;20055;-52
2022/04/26 05:15:03;;;;;;;40.42;29.95;;;;;;;11.24;100.00;95960.59;5126172;27;20082;-56
2022/04/26 05:17:33;;;;;;;45.63;31.00;;;;;;;11.58;100.00;95951.75;5124615;27;20543;-58
2022/04/26 05:20:01;;;;;;;44.90;32.90;;;;;;;11.60;100.00;95945.34;5124800;27;20074;-55
2022/04/26 05:22:30;;;;;;;40.22;30.50;;;;;;;11.54;100.00;95938.06;5122297;27;20066;-55
2022/04/26 05:24:57;;;;;;;41.38;31.20;;;;;;;11.33;100.00;95941.16;5124955;27;20063;-55
2022/04/26 05:27:27;;;;;;;42.67;31.45;;;;;;;11.10;100.00;95948.03;5126519;27;20054;-57
2022/04/26 05:29:56;;;;;;;40.83;31.77;;;;;;;11.08;100.00;95940.28;5126001;27;20082;-52
2022/04/26 05:32:25;;;;;;;44.08;32.05;;;;;;;11.21;100.00;95946.91;5105040;28;20288;-55
2022/04/26 05:34:58;;;;;;;45.00;33.15;;;;;;;11.31;100.00;95951.03;5105524;28;20063;-53
2022/04/26 05:37:26;;;;;;;43.08;31.98;;;;;;;11.50;100.00;95951.75;5105633;28;20510;-58
2022/04/26 05:39:55;;;;;;;45.55;33.50;;;;;;;11.48;100.00;95945.81;5098731;28;20085;-56
2022/04/26 05:42:24;;;;;;;47.95;34.00;;;;;;;11.61;100.00;95948.78;5094558;28;20075;-52
2022/04/26 05:44:52;;;;;;;44.15;31.95;;;;;;;11.67;100.00;95950.78;5102045;28;20075;-52
2022/04/26 05:47:20;;;;;;;46.75;34.28;;;;;;;11.62;100.00;95945.97;5098225;28;20085;-56
2022/04/26 05:49:49;;;;;;;42.20;32.17;;;;;;;11.42;100.00;95955.19;5114324;27;20544;-54
2022/04/26 05:52:18;;;;;;;44.20;31.90;;;;;;;11.26;100.00;95952.53;5120575;27;20688;-57
2022/04/26 05:54:47;;;;;;;43.58;31.40;;;;;;;11.44;100.00;95957.69;5121147;27;20073;-54
2022/04/26 05:57:15;;;;;;;43.35;30.17;;;;;;;11.52;100.00;95955.03;5119150;27;20548;-57
2022/04/26 05:59:43;;;;;;;42.83;31.60;;;;;;;11.66;100.00;95964.97;5099664;28;20094;-54
2022/04/26 06:02:12;;;;;;;42.92;32.05;;;;;;;11.82;100.00;95953.59;5097001;28;20068;-56
2022/04/26 06:04:40;;;;;;;45.08;31.58;;;;;;;11.75;100.00;95952.59;5101035;28;20060;-55
2022/04/26 06:07:08;;;;;;;43.85;31.92;;;;;;;11.95;100.00;95953.97;5099650;28;20533;-52
2022/04/26 06:09:38;;;;;;;41.05;30.75;;;;;;;12.11;100.00;95958.41;5099277;28;20063;-50
2022/04/26 06:12:08;;;;;;;43.88;30.88;;;;;;;12.29;100.00;95959.06;5090309;28;20459;-51
2022/04/26 06:14:36;;;;;;;40.13;30.23;;;;;;;12.10;100.00;95957.56;5106900;28;20086;-52
2022/04/26 06:17:04;;;;;;;43.15;30.60;;;;;;;11.73;100.00;95965.13;5097136;28;20545;-54
2022/04/26 06:19:33;;;;;;;39.80;29.92;;;;;;;11.73;100.00;95965.97;5105706;28;20556;-58
2022/04/26 06:22:02;;;;;;;39.33;30.48;;;;;;;11.67;100.00;95956.06;5102422;28;20074;-49
2022/04/26 06:24:30;;;;;;;38.10;29.15;;;;;;;12.17;100.00;95962.22;5101273;28;20060;-50
2022/04/26 06:27:00;;;;;;;39.65;29.50;;;;;;;12.53;100.00;95958.19;5099004;28;20075;-55
2022/04/26 06:29:28;;;;;;;40.35;29.75;;;;;;;12.09;100.00;95955.94;5095236;28;20119;-52
2022/04/26 06:31:57;;;;;;;40.17;30.35;;;;;;;12.25;100.00;95964.81;5098862;28;20543;-53
2022/04/26 06:34:26;;;;;;;37.78;28.65;;;;;;;11.80;100.00;95961.69;5101560;28;20607;-50
2022/04/26 06:36:54;;;;;;;36.40;28.15;;;;;;;11.86;100.00;95965.50;5111984;28;20485;-59
2022/04/26 06:39:22;;;;;;;39.95;30.27;;;;;;;12.08;100.00;95970.16;5098053;28;20071;-55
2022/04/26 06:41:51;;;;;;;40.50;30.40;;;;;;;12.09;100.00;95968.31;5105856;28;20083;-50
2022/04/26 06:44:20;;;;;;;38.22;29.25;;;;;;;12.45;100.00;95963.47;5111228;28;20071;-50
2022/04/26 06:46:48;;;;;;;39.20;29.43;;;;;;;12.66;100.00;95968.22;5107514;28;20474;-54
2022/04/26 06:49:17;;;;;;;34.55;27.10;;;;;;;13.11;100.00;95965.91;5111982;28;20063;-55
2022/04/26 06:51:45;;;;;;;35.60;28.25;;;;;;;12.89;100.00;95968.31;5108088;28;20067;-53
2022/04/26 06:54:13;;;;;;;35.67;27.35;;;;;;;13.51;100.00;95964.91;5109049;28;20079;-51
2022/04/26 06:56:45;;;;;;;35.17;27.67;;;;;;;12.80;100.00;95967.53;5103867;28;20083;-56
2022/04/26 06:59:14;;;;;;;29.63;24.48;;;;;;;13.51;100.00;95963.09;5122784;27;20526;-55
2022/04/26 07:01:43;;;;;;;32.15;26.05;;;;;;;13.16;100.00;95953.81;5130065;27;20074;-58
2022/04/26 07:04:12;;;;;;;33.22;25.50;;;;;;;13.30;100.00;95966.34;5121016;27;20286;-51
2022/04/26 07:06:41;;;;;;;34.92;25.40;;;;;;;13.25;100.00;95958.13;5110622;28;20169;-52
2022/04/26 07:09:09;;;;;;;30.15;24.63;;;;;;;13.08;100.00;95967.09;5110310;28;20086;-49
2022/04/26 07:11:37;;;;;;;27.70;23.20;;;;;;;13.44;100.00;95959.50;5097364;28;20078;-49
2022/04/26 07:14:06;;;;;;;31.02;24.88;;;;;;;13.02;100.00;95954.56;5104086;28;20462;-51
2022/04/26 07:16:35;;;;;;;29.20;24.17;;;;;;;13.67;100.00;95958.69;5099715;27;20117;-50
2022/04/26 07:19:05;;;;;;;28.02;23.85;;;;;;;13.32;100.00;95958.25;5103777;28;20071;-50
2022/04/26 07:21:35;;;;;;;27.77;23.13;;;;;;;13.45;100.00;95963.78;5110873;28;20074;-55
2022/04/26 07:24:23;;;;;;;34.63;27.40;;;;;;;13.38;100.00;95960.19;5097660;28;20455;-50
2022/04/26 07:26:54;;;;;;;30.52;23.63;;;;;;;14.00;100.00;95946.00;5107584;28;20680;-48
2022/04/26 07:29:22;;;;;;;;;;;;;;;13.65;100.00;95952.72;5100346;28;20067;-56
2022/04/26 07:31:50;;;;;;;26.55;21.33;;;;;;;14.49;100.00;95946.41;5107826;28;19955;-48
2022/04/26 07:34:25;;;;;;;25.58;21.98;;;;;;;14.08;100.00;95945.94;5103373;28;20086;-51
2022/04/26 07:36:54;;;;;;;24.63;21.45;;;;;;;14.42;100.00;95940.16;5110810;28;20063;-53
2022/04/26 07:39:23;;;;;;;23.40;20.45;;;;;;;15.12;100.00;95943.38;5100035;27;20068;-58
2022/04/26 07:41:52;;;;;;;23.67;19.63;;;;;;;15.00;100.00;95948.31;5098145;28;20080;-53
2022/04/26 07:44:20;;;;;;;17.15;15.35;;;;;;;15.24;100.00;95957.00;5095015;28;20063;-49
2022/04/26 07:46:50;;;;;;;16.75;14.80;;;;;;;15.79;100.00;95959.06;5106166;28;20067;-52
2022/04/26 07:49:19;;;;;;;17.33;14.53;;;;;;;15.42;100.00;95949.47;5110392;28;20442;-58
2022/04/26 07:51:49;;;;;;;14.60;13.10;;;;;;;15.84;100.00;95953.22;5107948;28;20059;-53
2022/04/26 07:54:17;;;;;;;16.13;14.43;;;;;;;15.30;100.00;95959.75;5110631;28;20075;-50
2022/04/26 07:56:46;;;;;;;15.43;13.18;;;;;;;15.49;100.00;95954.88;5107574;28;20076;-55
2022/04/26 07:59:15;;;;;;;15.30;13.70;;;;;;;15.76;100.00;95953.31;5104421;28;20063;-53
2022/04/26 08:01:43;;;;;;;13.23;11.82;;;;;;;16.09;100.00;95949.13;5104307;28;20075;-48
2022/04/26 08:04:12;;;;;;;14.32;12.82;;;;;;;15.92;100.00;95954.91;5100864;28;20059;-51
2022/04/26 08:06:40;;;;;;;13.40;12.00;;;;;;;16.31;100.00;95952.59;5108450;27;20059;-53
2022/04/26 08:09:10;;;;;;;11.05;9.80;;;;;;;15.56;100.00;95959.22;5110825;27;20481;-49
2022/04/26 08:11:38;;;;;;;8.53;7.73;;;;;;;15.78;100.00;95957.44;5103642;28;20086;-49
2022/04/26 08:14:06;;;;;;;9.70;8.80;;;;;;;15.62;100.00;95957.63;5104272;28;20082;-50
2022/04/26 08:16:34;;;;;;;9.23;8.23;;;;;;;15.71;100.00;95959.22;5109390;28;20067;-52
2022/04/26 08:19:04;;;;;;;9.55;7.93;;;;;;;15.26;100.00;95958.47;5096827;28;20459;-52
2022/04/26 08:21:38;;;;;;;10.32;9.30;;;;;;;15.06;100.00;95963.53;5104482;28;20059;-57
2022/04/26 08:29:52;;;;;;;9.82;8.68;;;;;;;15.73;100.00;95967.81;5030197;28;20073;-51
2022/04/26 08:32:20;;;;;;;9.27;8.27;;;;;;;15.68;100.00;95964.91;5085632;28;20071;-55
2022/04/26 08:34:48;;;;;;;9.00;8.10;;;;;;;15.73;100.00;95959.84;5110036;28;20063;-55
2022/04/26 08:37:17;;;;;;;9.13;8.23;;;;;;;15.56;100.00;95969.03;5102833;28;20550;-58
2022/04/26 08:39:45;;;;;;;8.48;7.68;;;;;;;15.07;100.00;95972.31;5109176;28;20458;-55
2022/04/26 08:42:15;;;;;;;8.88;7.97;;;;;;;15.08;100.00;95974.81;5110530;27;20122;-51
2022/04/26 08:44:45;;;;;;;8.60;7.75;;;;;;;16.33;100.00;95976.34;5112297;27;20090;-54
2022/04/26 08:52:46;;;;;;;7.88;7.07;;;;;;;15.34;100.00;95982.25;5102564;28;20481;-60
2022/04/26 08:55:15;;;;;;;8.45;7.65;;;;;;;15.93;100.00;95983.13;5109645;28;20078;-57
2022/04/26 08:57:45;;;;;;;7.63;6.93;;;;;;;15.94;100.00;95992.78;5107866;28;20067;-53
2022/04/26 09:00:14;;;;;;;7.33;6.63;;;;;;;15.02;100.00;95986.16;5109142;28;20101;-54
2022/04/26 09:02:43;;;;;;;7.47;6.78;;;;;;;15.30;100.00;95990.81;5109900;28;20075;-52
2022/04/26 09:05:13;;;;;;;6.90;5.97;;;;;;;15.09;100.00;95988.91;5108652;28;20063;-54
2022/04/26 09:07:45;;;;;;;8.20;7.38;;;;;;;14.44;100.00;95991.19;5109347;28;20047;-52
2022/04/26 09:10:16;;;;;;;7.70;6.95;;;;;;;14.48;100.00;95994.31;5109064;28;20066;-54
2022/04/26 09:13:04;;;;;;;7.80;7.00;;;;;;;14.72;100.00;95993.28;5108741;28;20067;-53
2022/04/26 09:15:41;;;;;;;7.22;6.50;;;;;;;14.82;100.00;95985.88;5108457;28;20066;-50
2022/04/26 09:18:21;;;;;;;6.85;6.22;;;;;;;14.40;100.00;95979.31;5103607;28;20087;-55
2022/04/26 09:20:50;;;;;;;7.03;5.05;;;;;;;14.92;100.00;95981.13;5126711;27;20078;-55
2022/04/26 09:23:20;;;;;;;5.60;5.10;;;;;;;14.81;100.00;95984.22;5129236;27;20093;-52
2022/04/26 09:25:52;;;;;;;6.15;5.55;;;;;;;14.69;100.00;95980.38;5129302;27;20069;-60
2022/04/26 09:28:26;;;;;;;8.13;5.85;;;;;;;14.43;100.00;95991.38;5107182;27;20051;-57
2022/04/26 09:30:55;;;;;;;5.75;5.25;;;;;;;13.91;100.00;95994.81;5126221;27;20077;-51
2022/04/26 09:33:43;;;;;;;6.30;5.70;;;;;;;14.61;100.00;95985.78;5126298;27;20043;-55
2022/04/26 09:36:12;;;;;;;5.93;5.43;;;;;;;14.59;100.00;95990.41;5124325;27;20083;-51
2022/04/26 09:38:42;;;;;;;7.63;5.65;;;;;;;14.61;100.00;95988.44;5122848;27;20089;-55
2022/04/26 09:41:10;;;;;;;6.25;5.65;;;;;;;14.70;100.00;95990.81;5128408;28;20097;-58
2022/04/26 09:43:40;;;;;;;6.30;5.70;;;;;;;15.08;100.00;95989.91;5124255;27;20067;-53
2022/04/26 09:46:09;;;;;;;5.80;5.25;;;;;;;14.93;100.00;95987.25;5129123;28;20081;-56
2022/04/26 09:48:39;;;;;;;7.03;4.60;;;;;;;14.96;100.00;95993.00;5127564;28;20076;-54
2022/04/26 09:51:09;;;;;;;5.20;4.70;;;;;;;14.71;100.00;96000.41;5124036;28;20516;-55
2022/04/26 09:53:37;;;;;;;5.90;5.32;;;;;;;14.85;100.00;96001.44;5134595;27;20066;-49
2022/04/26 09:56:06;;;;;;;6.90;6.30;;;;;;;14.72;100.00;95995.94;5128678;27;20529;-58
2022/04/26 09:58:52;;;;;;;5.30;4.80;;;;;;;14.51;100.00;96001.94;5127246;28;20070;-51
2022/04/26 10:01:20;;;;;;;5.35;4.80;;;;;;;14.95;100.00;95999.34;5128613;28;20051;-55
2022/04/26 10:03:51;;;;;;;5.28;4.80;;;;;;;14.08;100.00;95992.84;5128780;28;20069;-50
2022/04/26 10:06:19;;;;;;;;;;;;;;;14.53;100.00;95994.66;5127306;28;20055;-55
2022/04/26 10:08:48;;;;;;;5.18;4.65;;;;;;;14.37;100.00;95995.56;5127221;27;19931;-55
2022/04/26 10:11:17;;;;;;;5.95;4.80;;;;;;;14.27;100.00;95995.00;5131749;27;20069;-50
2022/04/26 10:13:48;;;;;;;5.30;4.80;;;;;;;14.15;100.00;95999.09;5132855;27;20271;-53
2022/04/26 10:16:23;;;;;;;5.70;4.90;;;;;;;13.73;100.00;96005.69;5132762;27;20063;-54
2022/04/26 10:18:52;;;;;;;5.97;5.47;;;;;;;13.84;100.00;96010.59;5132870;27;20070;-50
2022/04/26 10:21:49;;;;;;;6.43;5.00;;;;;;;13.49;100.00;96023.38;5125673;27;20055;-51
2022/04/26 10:24:20;;;;;;;6.45;4.70;;;;;;;13.35;100.00;96018.81;5133101;27;20059;-55
2022/04/26 10:26:49;;;;;;;5.32;4.82;;;;;;;13.30;100.00;96026.44;5129372;27;20083;-51
2022/04/26 10:29:22;;;;;;;6.13;4.93;;;;;;;12.98;100.00;96027.34;5122217;27;20394;-48
2022/04/26 10:31:59;;;;;;;6.53;4.82;;;;;;;12.80;100.00;96016.97;5128349;27;20062;-52
2022/04/26 10:34:30;;;;;;;5.85;5.25;;;;;;;12.97;100.00;96012.44;5125669;27;20066;-52
2022/04/26 10:37:00;;;;;;;;;;;;;;;13.47;100.00;96004.16;5130358;27;20059;-51
2022/04/26 10:39:38;;;;;;;6.22;5.63;;;;;;;13.74;100.00;96004.69;5126677;27;19969;-47
2022/04/26 10:42:26;;;;;;;7.80;6.35;;;;;;;13.87;100.00;96006.75;5132074;27;20546;-47
2022/04/26 10:44:58;;;;;;;6.75;6.05;;;;;;;14.25;100.00;96003.16;5133140;27;20101;-51
2022/04/26 10:47:29;;;;;;;6.60;5.70;;;;;;;13.85;100.00;96017.53;5106285;28;20547;-52
2022/04/26 10:50:02;;;;;;;8.18;5.93;;;;;;;14.17;100.00;96011.16;5105913;28;20060;-53
2022/04/26 10:52:41;;;;;;;6.22;5.50;;;;;;;13.93;100.00;96032.53;5105765;28;20060;-49
2022/04/26 10:55:14;;;;;;;6.18;5.28;;;;;;;13.81;100.00;96021.53;5102370;28;20066;-54
2022/04/26 10:57:52;;;;;;;5.80;5.20;;;;;;;13.97;100.00;96024.09;5108614;28;20070;-50
2022/04/26 11:00:27;;;;;;;7.05;5.75;;;;;;;14.46;100.00;96020.22;5107570;28;20064;-51
2022/04/26 11:03:03;;;;;;;6.53;5.90;;;;;;;14.09;100.00;96027.13;5107811;28;20283;-51
2022/04/26 11:05:34;;;;;;;5.97;5.35;;;;;;;14.03;100.00;96033.13;5110406;27;20481;-55
2022/04/26 11:08:06;;;;;;;5.80;5.20;;;;;;;14.48;100.00;96024.31;5095102;28;20067;-52
2022/04/26 11:13:21;;;;;;;7.22;5.88;;;;;;;13.98;100.00;96040.81;5106955;28;20067;-54
2022/04/26 11:15:50;;;;;;;6.05;5.45;;;;;;;13.28;100.00;96045.16;5106956;28;20059;-52
2022/04/26 11:18:22;;;;;;;6.72;6.03;;;;;;;13.23;100.00;96049.28;5108123;28;20059;-54
2022/04/26 11:20:50;;;;;;;6.80;6.10;;;;;;;13.02;100.00;96048.00;5100457;28;20072;-54
2022/04/26 11:29:26;;;;;;;7.22;5.80;;;;;;;13.68;100.00;96059.19;5124880;27;20096;-51
2022/04/26 11:31:55;;;;;;;6.53;5.88;;;;;;;13.72;100.00;96049.91;5124378;27;20067;-52
2022/04/26 11:34:46;;;;;;;6.05;5.47;;;;;;;13.71;100.00;96060.69;5112434;27;20067;-51
2022/04/26 11:37:15;;;;;;;5.85;5.25;;;;;;;13.48;100.00;96068.56;5107469;28;20040;-57
2022/04/26 11:39:44;;;;;;;5.82;5.22;;;;;;;13.24;100.00;96070.31;5103824;28;20079;-57
2022/04/26 11:42:13;;;;;;;5.78;4.82;;;;;;;12.74;100.00;96073.22;5102594;27;20817;-52
2022/04/26 11:45:00;;;;;;;5.10;4.22;;;;;;;11.72;100.00;96091.09;5110911;28;20086;-52
2022/04/26 11:47:43;;;;;;;15.60;5.03;;;;;;;13.07;100.00;96130.41;5110536;27;20387;-49
2022/04/26 11:50:19;;;;;;;2.92;2.72;;;;;;;13.36;100.00;96968.69;5105511;28;20070;-52
2022/04/26 11:52:48;;;;;;;2.80;2.55;;;;;;;16.08;100.00;97312.25;5092381;28;20418;-48
2022/04/26 11:55:22;;;;;;;3.25;2.95;;;;;;;19.44;100.00;96122.50;5110471;28;20080;-50
2022/04/26 11:57:51;;;;;;;3.47;3.17;;;;;;;-146.19;100.00;58918.88;5112998;27;20058;-53
2022/04/26 12:00:21;;;;;;;3.78;3.47;;;;;;;-146.19;100.00;58918.88;5117952;27;20063;-53
2022/04/26 12:02:49;;;;;;;;;;;;;;;-146.19;100.00;58918.88;5115657;27;20413;-48
2022/04/26 12:05:22;;;;;;;3.45;3.15;;;;;;;13.65;100.00;96146.16;5104222;27;19959;-54
2022/04/26 12:07:50;;;;;;;5.10;4.13;;;;;;;13.77;100.00;96158.03;5109468;27;20460;-48
2022/04/26 12:10:28;;;;;;;4.93;4.43;;;;;;;13.78;100.00;96152.56;5104943;28;20056;-50
2022/04/26 12:12:58;;;;;;;6.10;4.25;;;;;;;13.74;100.00;96153.09;5095503;28;20067;-52
2022/04/26 12:15:28;;;;;;;4.97;4.38;;;;;;;13.71;100.00;96169.31;5103317;28;20070;-48
2022/04/26 12:18:17;;;;;;;4.53;3.60;;;;;;;13.22;100.00;96187.97;5104389;28;20072;-50
2022/04/26 12:21:00;;;;;;;4.72;3.92;;;;;;;13.24;100.00;96157.69;5102168;28;20472;-52
2022/04/26 12:23:30;;;;;;;4.93;4.38;;;;;;;13.44;100.00;96158.13;5108730;28;20544;-50
2022/04/26 12:26:02;;;;;;;6.38;3.97;;;;;;;13.40;100.00;96156.84;5106432;28;20477;-51
2022/04/26 12:28:30;;;;;;;5.00;4.20;;;;;;;13.78;100.00;96165.00;5104915;28;20067;-55
2022/04/26 12:30:59;;;;;;;5.90;4.53;;;;;;;13.69;100.00;96158.06;5109712;28;20466;-49
2022/04/26 12:33:29;;;;;;;6.90;4.15;;;;;;;13.63;100.00;96154.28;5099188;28;20064;-50
2022/04/26 12:36:01;;;;;;;6.18;5.28;;;;;;;14.06;100.00;96159.22;5096448;28;20462;-49
2022/04/26 12:38:30;;;;;;;8.10;5.60;;;;;;;13.90;100.00;96160.97;5105946;28;20588;-49
2022/04/26 12:41:17;;;;;;;5.40;4.45;;;;;;;13.42;100.00;96161.94;5106220;28;20075;-54
2022/04/26 12:43:45;;;;;;;5.07;4.57;;;;;;;13.83;100.00;96169.75;5102606;28;20101;-51
2022/04/26 12:46:14;;;;;;;5.93;5.05;;;;;;;13.99;100.00;96167.06;5098889;28;20403;-54
2022/04/26 12:51:54;;;;;;;4.88;4.47;;;;;;;13.89;100.00;96180.50;5109275;28;20066;-50
2022/04/26 12:54:22;;;;;;;5.22;4.72;;;;;;;14.28;100.00;96181.47;5109584;28;20059;-54
2022/04/26 12:56:57;;;;;;;5.88;4.80;;;;;;;13.69;100.00;96176.59;5101156;28;20083;-49
2022/04/26 12:59:34;;;;;;;5.22;4.53;;;;;;;14.00;100.00;96189.91;5096795;28;20082;-48
2022/04/26 13:02:04;;;;;;;5.40;4.72;;;;;;;13.99;100.00;96190.91;5100420;27;20055;-47
2022/04/26 13:04:33;;;;;;;4.97;4.47;;;;;;;13.62;100.00;96191.53;5103446;28;20078;-53
2022/04/26 13:07:04;;;;;;;6.10;4.15;;;;;;;13.46;100.00;96187.94;5108270;28;20071;-57
2022/04/26 13:09:35;;;;;;;7.40;4.20;;;;;;;13.57;100.00;96194.72;5108205;28;20055;-48
2022/04/26 13:12:05;;;;;;;6.53;4.90;;;;;;;13.87;100.00;96189.66;5107918;28;20079;-52
2022/04/26 13:14:34;;;;;;;5.72;4.47;;;;;;;13.48;100.00;96193.06;5110345;28;20071;-50
2022/04/26 13:17:20;;;;;;;7.00;4.18;;;;;;;13.30;100.00;96186.16;5109214;28;20062;-47
2022/04/26 13:19:48;;;;;;;4.72;3.90;;;;;;;13.69;100.00;96185.38;5102534;28;20119;-48
2022/04/26 13:22:18;;;;;;;3.92;3.63;;;;;;;13.15;100.00;96192.28;5102869;28;20063;-53
2022/04/26 13:24:46;;;;;;;6.00;3.87;;;;;;;13.40;100.00;96199.22;5109371;28;20063;-54
2022/04/26 13:27:16;;;;;;;5.53;3.50;;;;;;;13.39;100.00;96191.44;5111380;27;20493;-48
2022/04/26 13:29:44;;;;;;;5.30;3.70;;;;;;;13.91;100.00;96196.25;5114556;27;20075;-50
2022/04/26 13:32:12;;;;;;;4.93;3.72;;;;;;;13.69;100.00;96195.97;5107117;28;20591;-54
2022/04/26 13:34:41;;;;;;;4.45;3.30;;;;;;;13.45;100.00;96196.88;5109603;28;20496;-53
2022/04/26 13:37:09;;;;;;;6.30;3.83;;;;;;;14.07;100.00;96196.16;5109146;28;20071;-48
2022/04/26 13:39:39;;;;;;;4.32;3.58;;;;;;;14.54;100.00;96191.81;5105162;28;20508;-52
2022/04/26 13:42:09;;;;;;;4.72;3.58;;;;;;;14.52;100.00;96193.81;5107748;28;20083;-52
2022/04/26 13:44:38;;;;;;;3.97;3.58;;;;;;;15.44;100.00;96175.94;5103744;28;20079;-50
2022/04/26 13:47:08;;;;;;;5.30;4.10;;;;;;;15.46;100.00;96165.97;5109291;28;20063;-50
2022/04/26 13:49:39;;;;;;;5.57;3.97;;;;;;;15.47;100.00;96166.78;5108145;28;20063;-50
2022/04/26 13:52:09;;;;;;;4.70;3.53;;;;;;;14.71;100.00;96178.25;5108365;28;20074;-54
2022/04/26 13:54:38;;;;;;;4.38;3.78;;;;;;;14.59;100.00;96181.47;5108424;28;20059;-50
2022/04/26 13:57:07;;;;;;;3.80;3.50;;;;;;;14.65;100.00;96173.63;5103070;28;20095;-49
2022/04/26 13:59:36;;;;;;;5.55;4.00;;;;;;;14.91;100.00;96181.25;5104300;28;20079;-49
2022/04/26 14:02:06;;;;;;;6.70;4.03;;;;;;;15.17;100.00;96180.88;5095761;28;20064;-55
2022/04/26 14:04:35;;;;;;;4.00;3.45;;;;;;;15.71;100.00;96185.16;5102861;28;20067;-53
2022/04/26 14:07:04;;;;;;;3.85;3.45;;;;;;;16.24;100.00;96191.19;5090430;28;20067;-54
2022/04/26 14:09:33;;;;;;;4.45;3.20;;;;;;;16.19;100.00;96198.06;5102023;28;20446;-55
2022/04/26 14:12:04;;;;;;;3.70;3.27;;;;;;;15.56;100.00;96202.94;5117482;28;20150;-58
2022/04/26 14:22:52;;;;;;;4.40;3.25;;;;;;;15.09;100.00;96222.59;5113712;28;20055;-52
2022/04/26 14:25:20;;;;;;;4.82;3.50;;;;;;;16.08;100.00;96226.78;5109935;28;20059;-52
2022/04/26 14:27:51;;;;;;;5.03;3.33;;;;;;;15.88;100.00;96233.66;5093930;28;20062;-52
2022/04/26 14:30:19;;;;;;;5.30;3.63;;;;;;;15.52;100.00;96239.66;5111568;28;20079;-56
2022/04/26 14:33:07;;;;;;;4.47;3.35;;;;;;;15.65;100.00;96234.53;5108536;28;20075;-58
2022/04/26 14:35:36;;;;;;;4.63;3.65;;;;;;;15.34;100.00;96237.31;5108869;28;20067;-55
2022/04/26 14:38:04;;;;;;;3.90;3.50;;;;;;;14.57;100.00;96236.56;5108250;28;20422;-58
2022/04/26 14:40:33;;;;;;;4.78;3.75;;;;;;;15.92;100.00;96239.44;5107988;28;20082;-59
2022/04/26 14:43:09;;;;;;;3.95;3.55;;;;;;;15.75;100.00;96230.81;5108018;28;20076;-57
2022/04/26 14:45:45;;;;;;;4.13;3.72;;;;;;;15.76;100.00;96235.97;5102868;28;20150;-59
2022/04/26 14:48:16;;;;;;;4.05;3.60;;;;;;;15.34;100.00;96252.44;5108464;28;20055;-57
2022/04/26 14:50:55;;;;;;;6.82;4.03;;;;;;;15.71;100.00;96261.44;5105557;28;20090;-57
2022/04/26 14:53:24;;;;;;;4.70;3.85;;;;;;;15.42;100.00;96268.31;5121705;27;20524;-59
2022/04/26 14:56:09;;;;;;;5.35;3.65;;;;;;;14.91;100.00;96262.75;5130075;27;20054;-58
2022/04/26 14:59:02;;;;;;;5.23;4.00;;;;;;;15.21;100.00;96276.97;5122191;27;20062;-58
2022/04/26 15:01:36;;;;;;;6.15;4.40;;;;;;;15.23;100.00;96282.91;5132670;27;20046;-57
2022/04/26 15:04:05;;;;;;;4.97;4.10;;;;;;;14.82;100.00;96277.88;5117841;27;20067;-57
2022/04/26 15:06:33;;;;;;;4.82;4.22;;;;;;;15.03;100.00;96287.88;5111473;28;20067;-51
2022/04/26 15:11:47;;;;;;;5.03;4.32;;;;;;;15.07;100.00;96288.34;5111623;28;20071;-57
2022/04/26 15:17:02;;;;;;;6.78;4.00;;;;;;;14.67;100.00;96292.91;5111498;28;20106;-54
2022/04/26 15:19:35;;;;;;;4.80;4.10;;;;;;;15.53;100.00;96293.66;5110977;28;20189;-55
2022/04/26 15:22:04;;;;;;;4.90;4.10;;;;;;;14.47;100.00;96297.78;5111323;28;20078;-56
2022/04/26 15:24:33;;;;;;;5.15;4.70;;;;;;;14.88;100.00;96284.31;5110661;28;21037;-57
2022/04/26 15:27:01;;;;;;;6.50;4.38;;;;;;;14.86;100.00;96288.97;5111511;28;20086;-57
2022/04/26 15:29:31;;;;;;;5.63;4.82;;;;;;;15.02;100.00;96291.53;5107590;28;20624;-57
2022/04/26 15:32:01;;;;;;;5.13;4.68;;;;;;;14.80;100.00;96287.03;5111235;28;20547;-58
2022/04/26 15:34:29;;;;;;;5.13;4.57;;;;;;;15.54;100.00;96292.63;5111127;28;20450;-55
2022/04/26 15:36:57;;;;;;;6.47;4.50;;;;;;;15.69;100.00;96284.72;5110966;28;20066;-59
2022/04/26 15:39:26;;;;;;;4.60;4.20;;;;;;;15.74;100.00;96282.34;5110297;28;20070;-55
2022/04/26 15:41:54;;;;;;;10.43;4.70;;;;;;;15.89;100.00;96277.88;5111268;28;20120;-55
2022/04/26 15:44:22;;;;;;;5.03;4.53;;;;;;;15.02;100.00;96288.06;5106293;28;20070;-59
2022/04/26 15:46:54;;;;;;;5.70;4.93;;;;;;;15.70;100.00;96286.38;5108875;28;20056;-56
2022/04/26 15:49:23;;;;;;;5.00;4.60;;;;;;;15.05;100.00;96290.38;5110463;28;20067;-57